createdAt,value
2018-12-20T00:01:41.543Z,100190
2018-12-20T00:07:04.175Z,100197
2018-12-20T00:12:28.105Z,100193
2018-12-20T00:17:50.823Z,100190
2018-12-20T00:23:13.495Z,100181
2018-12-20T00:28:36.435Z,100182
2018-12-20T00:33:59.009Z,100181
2018-12-20T00:39:21.780Z,100185
2018-12-20T00:44:44.501Z,100188
2018-12-20T00:50:07.292Z,100178
2018-12-20T00:55:30.180Z,100185
2018-12-20T01:00:52.769Z,100191
2018-12-20T01:06:15.620Z,100197
2018-12-20T01:11:38.397Z,100200
2018-12-20T01:17:01.028Z,100195
2018-12-20T01:22:23.851Z,100205
2018-12-20T01:27:46.540Z,100200
2018-12-20T01:33:09.228Z,100211
2018-12-20T01:38:31.664Z,100213
2018-12-20T01:43:54.427Z,100207
2018-12-20T01:49:18.067Z,100212
2018-12-20T01:54:40.731Z,100214
2018-12-20T02:00:05.239Z,100215
2018-12-20T02:05:28.216Z,100205
2018-12-20T02:10:50.860Z,100197
2018-12-20T02:16:13.558Z,100198
2018-12-20T02:21:36.315Z,100192
2018-12-20T02:26:59.227Z,100191
2018-12-20T02:32:22.011Z,100186
2018-12-20T02:37:44.833Z,100190
2018-12-20T02:43:08.851Z,100177
2018-12-20T02:48:31.779Z,100172
2018-12-20T02:53:54.645Z,100155
2018-12-20T02:59:17.379Z,100164
2018-12-20T03:04:40.149Z,100161
2018-12-20T03:10:02.938Z,100167
2018-12-20T03:15:25.611Z,100158
2018-12-20T03:20:48.244Z,100153
2018-12-20T03:26:10.912Z,100155
2018-12-20T03:31:33.835Z,100156
2018-12-20T03:36:57.453Z,100152
2018-12-20T03:42:20.172Z,100147
2018-12-20T03:47:43.206Z,100148
2018-12-20T03:53:05.732Z,100157
2018-12-20T03:58:28.661Z,100149
2018-12-20T04:03:51.229Z,100146
2018-12-20T04:09:13.824Z,100149
2018-12-20T04:14:37.636Z,100150
2018-12-20T04:20:00.990Z,100152
2018-12-20T04:25:23.625Z,100151
2018-12-20T04:30:46.441Z,100154
2018-12-20T04:36:19.160Z,100152
2018-12-20T04:41:41.975Z,100157
2018-12-20T04:47:05.770Z,100153
2018-12-20T04:52:28.404Z,100153
2018-12-20T04:57:51.232Z,100149
2018-12-20T05:03:14.280Z,100139
2018-12-20T05:08:37.054Z,100143
2018-12-20T05:13:59.680Z,100142
2018-12-20T05:19:22.401Z,100139
2018-12-20T05:24:45.180Z,100132
2018-12-20T05:30:08.239Z,100137
2018-12-20T05:35:30.798Z,100137
2018-12-20T05:40:53.683Z,100136
2018-12-20T05:46:17.107Z,100139
2018-12-20T05:51:40.078Z,100140
2018-12-20T05:57:02.842Z,100142
2018-12-20T06:02:25.837Z,100147
2018-12-20T06:07:48.454Z,100153
2018-12-20T06:13:11.139Z,100158
2018-12-20T06:18:34.867Z,100160
2018-12-20T06:23:58.496Z,100159
2018-12-20T06:29:21.354Z,100157
2018-12-20T06:34:44.060Z,100156
2018-12-20T06:40:07.874Z,100153
2018-12-20T06:45:30.778Z,100148
2018-12-20T06:50:53.586Z,100156
2018-12-20T06:56:16.541Z,100168
2018-12-20T07:01:39.356Z,100165
2018-12-20T07:07:02.082Z,100168
2018-12-20T07:12:24.836Z,100172
2018-12-20T07:17:49.237Z,100175
2018-12-20T07:23:13.240Z,100179
2018-12-20T07:28:35.956Z,100174
2018-12-20T07:33:58.830Z,100181
2018-12-20T07:39:21.608Z,100181
2018-12-20T07:44:44.656Z,100185
2018-12-20T07:50:08.050Z,100185
2018-12-20T07:55:30.725Z,100185
2018-12-20T08:00:53.442Z,100188
2018-12-20T08:06:16.462Z,100197
2018-12-20T08:11:39.943Z,100196
2018-12-20T08:17:02.657Z,100191
2018-12-20T08:22:25.399Z,100194
2018-12-20T08:27:48.263Z,100196
2018-12-20T08:33:11.085Z,100199
2018-12-20T08:38:33.959Z,100205
2018-12-20T08:44:07.452Z,100201
2018-12-20T08:49:30.525Z,100199
2018-12-20T08:54:53.421Z,100201
2018-12-20T09:00:16.152Z,100206
2018-12-20T09:05:39.013Z,100203
2018-12-20T09:11:01.697Z,100213
2018-12-20T09:16:24.679Z,100210
2018-12-20T09:21:47.259Z,100211
2018-12-20T09:27:09.989Z,100216
2018-12-20T09:32:33.044Z,100219
2018-12-20T09:37:55.873Z,100226
2018-12-20T09:43:19.940Z,100226
2018-12-20T09:48:53.351Z,100226
2018-12-20T09:54:16.211Z,100223
2018-12-20T09:59:38.986Z,100216
2018-12-20T10:05:01.720Z,100210
2018-12-20T10:10:24.436Z,100199
2018-12-20T10:15:47.409Z,100206
2018-12-20T10:21:10.226Z,100201
2018-12-20T10:26:32.963Z,100205
2018-12-20T10:31:55.618Z,100201
2018-12-20T10:45:50.797Z,100197
2018-12-20T11:06:00.933Z,100177
2018-12-20T11:11:59.782Z,100164
2018-12-20T11:17:37.407Z,100169
2018-12-20T11:23:39.591Z,100172
2018-12-20T11:29:05.353Z,100168
2018-12-20T11:34:28.291Z,100167
2018-12-20T11:39:59.183Z,100160
2018-12-20T11:45:14.910Z,100153
2018-12-20T11:51:17.554Z,100148
2018-12-20T11:57:13.317Z,100147
2018-12-20T12:10:56.609Z,100153
2018-12-20T12:16:25.005Z,100151
2018-12-20T12:21:49.478Z,100144
2018-12-20T12:27:10.685Z,100146
2018-12-20T12:32:33.395Z,100135
2018-12-20T12:37:56.860Z,100134
2018-12-20T12:43:19.306Z,100134
2018-12-20T12:48:42.147Z,100128
2018-12-20T12:54:04.931Z,100127
2018-12-20T12:59:27.709Z,100130
2018-12-20T13:04:52.176Z,100125
2018-12-20T13:10:15.086Z,100124
2018-12-20T13:15:37.806Z,100125
2018-12-20T13:21:01.195Z,100127
2018-12-20T13:26:24.042Z,100132
2018-12-20T13:31:47.691Z,100124
2018-12-20T13:37:15.768Z,100121
2018-12-20T13:42:34.998Z,100128
2018-12-20T13:47:57.649Z,100126
2018-12-20T13:53:20.664Z,100125
2018-12-20T13:58:43.415Z,100125
2018-12-20T14:04:07.030Z,100117
2018-12-20T14:09:30.478Z,100122
2018-12-20T14:14:53.310Z,100126
2018-12-20T14:20:16.056Z,100134
2018-12-20T14:25:38.754Z,100142
2018-12-20T14:31:01.594Z,100131
2018-12-20T14:36:24.488Z,100138
2018-12-20T14:41:47.332Z,100132
2018-12-20T14:47:10.187Z,100137
2018-12-20T14:52:33.011Z,100137
2018-12-20T14:57:55.706Z,100124
2018-12-20T15:03:18.600Z,100136
2018-12-20T15:08:41.428Z,100132
2018-12-20T15:14:04.509Z,100128
2018-12-20T15:19:28.317Z,100135
2018-12-20T15:24:51.145Z,100141
2018-12-20T15:30:14.336Z,100139
2018-12-20T15:35:37.373Z,100147
2018-12-20T15:41:02.030Z,100155
2018-12-20T15:46:23.288Z,100162
2018-12-20T15:51:56.923Z,100156
2018-12-20T15:57:19.627Z,100158
2018-12-20T16:02:42.500Z,100162
2018-12-20T16:08:05.392Z,100163
2018-12-20T16:13:28.105Z,100162
2018-12-20T16:18:51.691Z,100162
2018-12-20T16:24:24.179Z,100168
2018-12-20T16:29:56.667Z,100182
2018-12-20T16:35:28.421Z,100190
2018-12-20T16:41:00.477Z,100191
2018-12-20T16:46:23.154Z,100193
2018-12-20T16:51:55.156Z,100194
2018-12-20T16:57:18.104Z,100199
2018-12-20T17:02:40.833Z,100200
2018-12-20T17:08:03.779Z,100200
2018-12-20T17:13:35.561Z,100208
2018-12-20T17:18:58.381Z,100203
2018-12-20T17:24:21.149Z,100202
2018-12-20T17:29:53.044Z,100200
2018-12-20T17:35:26.946Z,100201
2018-12-20T17:41:00.246Z,100197
2018-12-20T17:46:35.487Z,100197
2018-12-20T17:52:09.056Z,100195
2018-12-20T17:57:42.662Z,100192
2018-12-20T18:03:15.133Z,100198
2018-12-20T18:08:37.972Z,100194
2018-12-20T18:14:00.778Z,100190
2018-12-20T18:19:23.635Z,100187
2018-12-20T18:24:47.598Z,100186
2018-12-20T18:30:10.438Z,100185
2018-12-20T18:35:36.388Z,100184
2018-12-20T18:41:00.145Z,100180
2018-12-20T18:46:22.884Z,100178
2018-12-20T18:52:13.703Z,100170
2018-12-20T18:57:46.820Z,100174
2018-12-20T19:03:09.838Z,100179
2018-12-20T19:08:32.637Z,100185
2018-12-20T19:13:55.437Z,100181
2018-12-20T19:19:19.157Z,100190
2018-12-20T19:24:42.192Z,100185
2018-12-20T19:30:04.956Z,100182
2018-12-20T19:35:39.465Z,100186
2018-12-20T19:41:11.632Z,100187
2018-12-20T19:46:44.882Z,100187
2018-12-20T19:52:17.654Z,100190
2018-12-20T19:57:40.522Z,100187
2018-12-20T20:03:03.629Z,100187
2018-12-20T20:08:26.455Z,100187
2018-12-20T20:13:49.222Z,100184
2018-12-20T20:19:11.988Z,100189
2018-12-20T20:24:34.923Z,100182
2018-12-20T20:29:57.669Z,100172
2018-12-20T20:35:22.339Z,100175
2018-12-20T20:40:45.057Z,100169
2018-12-20T20:46:07.791Z,100170
2018-12-20T20:51:30.521Z,100164
2018-12-20T20:56:55.069Z,100163
2018-12-20T21:02:18.710Z,100165
2018-12-20T21:07:41.406Z,100172
2018-12-20T21:13:04.187Z,100178
2018-12-20T21:18:26.933Z,100172
2018-12-20T21:23:49.749Z,100173
2018-12-20T21:29:12.579Z,100178
2018-12-20T21:34:35.347Z,100174
2018-12-20T21:39:58.120Z,100168
2018-12-20T21:45:22.935Z,100166
2018-12-20T21:50:43.902Z,100161
2018-12-20T21:56:06.745Z,100155
2018-12-20T22:01:29.456Z,100153
2018-12-20T22:06:53.278Z,100151
2018-12-20T22:12:16.584Z,100158
2018-12-20T22:17:38.798Z,100154
2018-12-20T22:23:01.473Z,100158
2018-12-20T22:28:24.189Z,100149
2018-12-20T22:33:46.861Z,100154
2018-12-20T22:39:09.493Z,100158
2018-12-20T22:44:32.188Z,100157
2018-12-20T22:49:56.804Z,100147
2018-12-20T22:55:19.916Z,100145
2018-12-20T23:00:42.581Z,100139
2018-12-20T23:06:05.211Z,100142
2018-12-20T23:11:29.037Z,100142
2018-12-20T23:16:53.733Z,100145
2018-12-20T23:22:15.224Z,100142
2018-12-20T23:27:37.876Z,100138
2018-12-20T23:33:01.128Z,100144
2018-12-20T23:38:23.798Z,100148
2018-12-20T23:43:46.627Z,100145
2018-12-20T23:49:09.271Z,100139
2018-12-20T23:54:31.960Z,100137
2018-12-20T23:59:55.595Z,100130
